sensor_id;sensor_type;location;lat;lon;timestamp;pressure;altitude;pressure_sealevel;temperature
64600;BMP280;6553;48.412;9.514;2024-02-26T00:01:43;71618.38;;;19.42
64600;BMP280;6553;48.412;9.514;2024-02-26T00:04:10;71618.31;;;19.44
64600;BMP280;6553;48.412;9.514;2024-02-26T00:06:35;71613.91;;;19.43
64600;BMP280;6553;48.412;9.514;2024-02-26T00:09:02;71612.44;;;19.39
64600;BMP280;6553;48.412;9.514;2024-02-26T00:11:31;71614.03;;;19.40
64600;BMP280;6553;48.412;9.514;2024-02-26T00:13:57;71618.50;;;19.39
64600;BMP280;6553;48.412;9.514;2024-02-26T00:16:24;71617.88;;;19.41
64600;BMP280;6553;48.412;9.514;2024-02-26T00:18:49;71618.38;;;19.42
64600;BMP280;6553;48.412;9.514;2024-02-26T00:21:15;71619.47;;;19.43
64600;BMP280;6553;48.412;9.514;2024-02-26T00:23:41;71620.63;;;19.41
64600;BMP280;6553;48.412;9.514;2024-02-26T00:26:07;71610.97;;;19.35
64600;BMP280;6553;48.412;9.514;2024-02-26T00:28:34;71621.59;;;19.45
64600;BMP280;6553;48.412;9.514;2024-02-26T00:30:59;71613.91;;;19.43
64600;BMP280;6553;48.412;9.514;2024-02-26T00:33:25;71617.75;;;19.44
64600;BMP280;6553;48.412;9.514;2024-02-26T00:35:51;71611.28;;;19.40
64600;BMP280;6553;48.412;9.514;2024-02-26T00:38:17;71612.34;;;19.41
64600;BMP280;6553;48.412;9.514;2024-02-26T00:40:42;71613.91;;;19.43
64600;BMP280;6553;48.412;9.514;2024-02-26T00:43:08;71615.53;;;19.44
64600;BMP280;6553;48.412;9.514;2024-02-26T00:45:34;71621.59;;;19.45
64600;BMP280;6553;48.412;9.514;2024-02-26T00:48:00;71615.75;;;19.39
64600;BMP280;6553;48.412;9.514;2024-02-26T00:50:34;71614.56;;;19.41
64600;BMP280;6553;48.412;9.514;2024-02-26T00:53:01;71613.91;;;19.43
64600;BMP280;6553;48.412;9.514;2024-02-26T00:55:26;71611.28;;;19.40
64600;BMP280;6553;48.412;9.514;2024-02-26T00:57:52;71611.78;;;19.41
64600;BMP280;6553;48.412;9.514;2024-02-26T01:00:18;71618.38;;;19.42
64600;BMP280;6553;48.412;9.514;2024-02-26T01:02:44;71614.56;;;19.41
64600;BMP280;6553;48.412;9.514;2024-02-26T01:05:14;71616.16;;;19.42
64600;BMP280;6553;48.412;9.514;2024-02-26T01:07:42;71614.66;;;19.38
64600;BMP280;6553;48.412;9.514;2024-02-26T01:10:08;71617.44;;;19.38
64600;BMP280;6553;48.412;9.514;2024-02-26T01:12:34;71617.34;;;19.41
64600;BMP280;6553;48.412;9.514;2024-02-26T01:15:04;71616.28;;;19.40
64600;BMP280;6553;48.412;9.514;2024-02-26T01:17:30;71620.00;;;19.43
64600;BMP280;6553;48.412;9.514;2024-02-26T01:19:56;71619.47;;;19.43
64600;BMP280;6553;48.412;9.514;2024-02-26T01:22:22;71614.56;;;19.41
64600;BMP280;6553;48.412;9.514;2024-02-26T01:24:48;71617.34;;;19.41
64600;BMP280;6553;48.412;9.514;2024-02-26T01:27:14;71616.81;;;19.40
64600;BMP280;6553;48.412;9.514;2024-02-26T01:29:41;71614.56;;;19.41
64600;BMP280;6553;48.412;9.514;2024-02-26T01:32:07;71618.38;;;19.42
64600;BMP280;6553;48.412;9.514;2024-02-26T01:34:33;71616.69;;;19.43
64600;BMP280;6553;48.412;9.514;2024-02-26T01:37:00;71613.50;;;19.40
64600;BMP280;6553;48.412;9.514;2024-02-26T01:39:26;71620.00;;;19.43
64600;BMP280;6553;48.412;9.514;2024-02-26T01:41:53;71615.22;;;19.39
64600;BMP280;6553;48.412;9.514;2024-02-26T01:44:19;71611.28;;;19.40
64600;BMP280;6553;48.412;9.514;2024-02-26T01:46:45;71617.22;;;19.43
64600;BMP280;6553;48.412;9.514;2024-02-26T01:49:13;71613.63;;;19.37
64600;BMP280;6553;48.412;9.514;2024-02-26T01:51:40;71615.75;;;19.39
64600;BMP280;6553;48.412;9.514;2024-02-26T01:54:08;71621.16;;;19.42
64600;BMP280;6553;48.412;9.514;2024-02-26T01:56:36;71614.66;;;19.38
64600;BMP280;6553;48.412;9.514;2024-02-26T01:59:04;71614.66;;;19.38
64600;BMP280;6553;48.412;9.514;2024-02-26T02:01:33;71611.28;;;19.40
64600;BMP280;6553;48.412;9.514;2024-02-26T02:04:00;71614.56;;;19.41
64600;BMP280;6553;48.412;9.514;2024-02-26T02:06:27;71611.91;;;19.38
64600;BMP280;6553;48.412;9.514;2024-02-26T02:08:56;71612.84;;;19.42
64600;BMP280;6553;48.412;9.514;2024-02-26T02:11:22;71615.75;;;19.39
64600;BMP280;6553;48.412;9.514;2024-02-26T02:13:47;71618.38;;;19.42
64600;BMP280;6553;48.412;9.514;2024-02-26T02:16:14;71611.91;;;19.38
64600;BMP280;6553;48.412;9.514;2024-02-26T02:18:39;71615.75;;;19.39
64600;BMP280;6553;48.412;9.514;2024-02-26T02:21:05;71617.34;;;19.41
64600;BMP280;6553;48.412;9.514;2024-02-26T02:23:31;71610.31;;;19.37
64600;BMP280;6553;48.412;9.514;2024-02-26T02:25:58;71614.47;;;19.43
64600;BMP280;6553;48.412;9.514;2024-02-26T02:28:27;71614.56;;;19.41
64600;BMP280;6553;48.412;9.514;2024-02-26T02:30:53;71617.34;;;19.41
64600;BMP280;6553;48.412;9.514;2024-02-26T02:33:20;71609.25;;;19.36
64600;BMP280;6553;48.412;9.514;2024-02-26T02:35:46;71610.75;;;19.40
64600;BMP280;6553;48.412;9.514;2024-02-26T02:38:12;71614.16;;;19.38
64600;BMP280;6553;48.412;9.514;2024-02-26T02:40:38;71600.13;;;19.30
64600;BMP280;6553;48.412;9.514;2024-02-26T02:43:03;71619.69;;;19.38
64600;BMP280;6553;48.412;9.514;2024-02-26T02:45:30;71609.13;;;19.38
64600;BMP280;6553;48.412;9.514;2024-02-26T02:47:56;71611.78;;;19.41
64600;BMP280;6553;48.412;9.514;2024-02-26T02:50:21;71610.22;;;19.39
64600;BMP280;6553;48.412;9.514;2024-02-26T02:52:47;71609.66;;;19.39
64600;BMP280;6553;48.412;9.514;2024-02-26T02:55:16;71612.44;;;19.39
64600;BMP280;6553;48.412;9.514;2024-02-26T02:57:42;71613.63;;;19.37
64600;BMP280;6553;48.412;9.514;2024-02-26T03:00:12;71608.09;;;19.37
64600;BMP280;6553;48.412;9.514;2024-02-26T03:02:38;71617.34;;;19.41
64600;BMP280;6553;48.412;9.514;2024-02-26T03:05:05;71612.97;;;19.39
64600;BMP280;6553;48.412;9.514;2024-02-26T03:07:30;71615.09;;;19.41
64600;BMP280;6553;48.412;9.514;2024-02-26T03:09:57;71608.72;;;19.35
64600;BMP280;6553;48.412;9.514;2024-02-26T03:12:23;71613.09;;;19.37
64600;BMP280;6553;48.412;9.514;2024-02-26T03:14:48;71621.16;;;19.42
64600;BMP280;6553;48.412;9.514;2024-02-26T03:17:14;71610.75;;;19.40
64600;BMP280;6553;48.412;9.514;2024-02-26T03:19:40;71615.22;;;19.39
64600;BMP280;6553;48.412;9.514;2024-02-26T03:22:06;71616.81;;;19.40
64600;BMP280;6553;48.412;9.514;2024-02-26T03:24:32;71616.28;;;19.40
64600;BMP280;6553;48.412;9.514;2024-02-26T03:26:58;71610.75;;;19.40
64600;BMP280;6553;48.412;9.514;2024-02-26T03:29:23;71611.50;;;19.35
64600;BMP280;6553;48.412;9.514;2024-02-26T03:31:49;71614.03;;;19.40
64600;BMP280;6553;48.412;9.514;2024-02-26T03:34:15;71613.09;;;19.37
64600;BMP280;6553;48.412;9.514;2024-02-26T03:36:41;71617.34;;;19.41
64600;BMP280;6553;48.412;9.514;2024-02-26T03:39:07;71617.34;;;19.41
64600;BMP280;6553;48.412;9.514;2024-02-26T03:41:34;71617.34;;;19.41
64600;BMP280;6553;48.412;9.514;2024-02-26T03:44:01;71615.75;;;19.39
64600;BMP280;6553;48.412;9.514;2024-02-26T03:46:27;71613.50;;;19.40
64600;BMP280;6553;48.412;9.514;2024-02-26T03:48:53;71612.44;;;19.39
64600;BMP280;6553;48.412;9.514;2024-02-26T03:51:19;71613.50;;;19.40
64600;BMP280;6553;48.412;9.514;2024-02-26T03:53:45;71614.66;;;19.38
64600;BMP280;6553;48.412;9.514;2024-02-26T03:56:14;71610.31;;;19.37
64600;BMP280;6553;48.412;9.514;2024-02-26T03:58:40;71607.00;;;19.36
64600;BMP280;6553;48.412;9.514;2024-02-26T04:01:08;71617.34;;;19.41
64600;BMP280;6553;48.412;9.514;2024-02-26T04:03:35;71611.78;;;19.41
64600;BMP280;6553;48.412;9.514;2024-02-26T04:06:02;71611.28;;;19.40
64600;BMP280;6553;48.412;9.514;2024-02-26T04:08:28;71612.97;;;19.39
64600;BMP280;6553;48.412;9.514;2024-02-26T04:10:54;71613.63;;;19.37
64600;BMP280;6553;48.412;9.514;2024-02-26T04:13:20;71613.63;;;19.37
64600;BMP280;6553;48.412;9.514;2024-02-26T04:15:45;71615.75;;;19.39
64600;BMP280;6553;48.412;9.514;2024-02-26T04:18:13;71611.28;;;19.40
64600;BMP280;6553;48.412;9.514;2024-02-26T04:20:39;71611.38;;;19.38
64600;BMP280;6553;48.412;9.514;2024-02-26T04:23:07;71601.81;;;19.29
64600;BMP280;6553;48.412;9.514;2024-02-26T04:25:33;71602.25;;;19.32
64600;BMP280;6553;48.412;9.514;2024-02-26T04:27:59;71615.22;;;19.39
64600;BMP280;6553;48.412;9.514;2024-02-26T04:30:25;71612.13;;;19.33
64600;BMP280;6553;48.412;9.514;2024-02-26T04:32:50;71614.66;;;19.38
64600;BMP280;6553;48.412;9.514;2024-02-26T04:35:16;71608.22;;;19.35
64600;BMP280;6553;48.412;9.514;2024-02-26T04:37:42;71606.50;;;19.36
64600;BMP280;6553;48.412;9.514;2024-02-26T04:40:08;71611.59;;;19.33
64600;BMP280;6553;48.412;9.514;2024-02-26T04:42:34;71611.38;;;19.38
64600;BMP280;6553;48.412;9.514;2024-02-26T04:45:00;71609.13;;;19.38
64600;BMP280;6553;48.412;9.514;2024-02-26T04:47:26;71610.97;;;19.35
64600;BMP280;6553;48.412;9.514;2024-02-26T04:49:51;71613.63;;;19.37
64600;BMP280;6553;48.412;9.514;2024-02-26T04:52:18;71608.84;;;19.33
64600;BMP280;6553;48.412;9.514;2024-02-26T04:54:44;71615.75;;;19.39
64600;BMP280;6553;48.412;9.514;2024-02-26T04:57:10;71607.69;;;19.34
64600;BMP280;6553;48.412;9.514;2024-02-26T04:59:36;71612.03;;;19.36
64600;BMP280;6553;48.412;9.514;2024-02-26T05:02:02;71609.66;;;19.39
64600;BMP280;6553;48.412;9.514;2024-02-26T05:04:28;71608.63;;;19.38
64600;BMP280;6553;48.412;9.514;2024-02-26T05:06:54;71604.91;;;19.34
64600;BMP280;6553;48.412;9.514;2024-02-26T05:09:20;71614.66;;;19.38
64600;BMP280;6553;48.412;9.514;2024-02-26T05:11:46;71611.78;;;19.41
64600;BMP280;6553;48.412;9.514;2024-02-26T05:14:12;71612.97;;;19.39
64600;BMP280;6553;48.412;9.514;2024-02-26T05:16:37;71613.09;;;19.37
64600;BMP280;6553;48.412;9.514;2024-02-26T05:19:03;71611.38;;;19.38
64600;BMP280;6553;48.412;9.514;2024-02-26T05:21:29;71607.13;;;19.34
64600;BMP280;6553;48.412;9.514;2024-02-26T05:23:54;71616.28;;;19.40
64600;BMP280;6553;48.412;9.514;2024-02-26T05:26:22;71610.75;;;19.40
64600;BMP280;6553;48.412;9.514;2024-02-26T05:28:48;71614.16;;;19.38
64600;BMP280;6553;48.412;9.514;2024-02-26T05:31:15;71613.50;;;19.40
64600;BMP280;6553;48.412;9.514;2024-02-26T05:33:41;71613.09;;;19.37
64600;BMP280;6553;48.412;9.514;2024-02-26T05:36:06;71610.44;;;19.34
64600;BMP280;6553;48.412;9.514;2024-02-26T05:38:32;71610.97;;;19.35
64600;BMP280;6553;48.412;9.514;2024-02-26T05:40:59;71606.50;;;19.36
64600;BMP280;6553;48.412;9.514;2024-02-26T05:43:27;71606.06;;;19.33
64600;BMP280;6553;48.412;9.514;2024-02-26T05:45:54;71610.31;;;19.37
64600;BMP280;6553;48.412;9.514;2024-02-26T05:48:19;71613.22;;;19.34
64600;BMP280;6553;48.412;9.514;2024-02-26T05:50:46;71602.25;;;19.32
64600;BMP280;6553;48.412;9.514;2024-02-26T05:53:12;71609.25;;;19.36
64600;BMP280;6553;48.412;9.514;2024-02-26T05:55:38;71609.38;;;19.33
64600;BMP280;6553;48.412;9.514;2024-02-26T05:58:04;71612.66;;;19.34
64600;BMP280;6553;48.412;9.514;2024-02-26T06:00:31;71608.22;;;19.35
64600;BMP280;6553;48.412;9.514;2024-02-26T06:02:57;71603.31;;;19.33
64600;BMP280;6553;48.412;9.514;2024-02-26T06:05:23;71609.38;;;19.33
64600;BMP280;6553;48.412;9.514;2024-02-26T06:07:49;71610.97;;;19.35
64600;BMP280;6553;48.412;9.514;2024-02-26T06:10:15;71610.97;;;19.35
64600;BMP280;6553;48.412;9.514;2024-02-26T06:12:41;71602.88;;;19.30
64600;BMP280;6553;48.412;9.514;2024-02-26T06:15:07;71603.44;;;19.30
64600;BMP280;6553;48.412;9.514;2024-02-26T06:17:33;71607.25;;;19.31
64600;BMP280;6553;48.412;9.514;2024-02-26T06:19:59;71600.66;;;19.30
64600;BMP280;6553;48.412;9.514;2024-02-26T06:22:26;71603.97;;;19.31
64600;BMP280;6553;48.412;9.514;2024-02-26T06:24:52;71611.06;;;19.32
64600;BMP280;6553;48.412;9.514;2024-02-26T06:27:17;71607.78;;;19.32
64600;BMP280;6553;48.412;9.514;2024-02-26T06:29:43;71607.78;;;19.32
64600;BMP280;6553;48.412;9.514;2024-02-26T06:32:09;71607.25;;;19.31
64600;BMP280;6553;48.412;9.514;2024-02-26T06:34:35;71606.59;;;19.33
64600;BMP280;6553;48.412;9.514;2024-02-26T06:37:01;71609.91;;;19.34
64600;BMP280;6553;48.412;9.514;2024-02-26T06:39:26;71608.28;;;19.32
64600;BMP280;6553;48.412;9.514;2024-02-26T06:41:52;71595.88;;;19.26
64600;BMP280;6553;48.412;9.514;2024-02-26T06:44:26;71608.97;;;19.30
64600;BMP280;6553;48.412;9.514;2024-02-26T06:46:52;71598.00;;;19.28
64600;BMP280;6553;48.412;9.514;2024-02-26T06:49:18;71602.25;;;19.32
64600;BMP280;6553;48.412;9.514;2024-02-26T06:51:43;71602.88;;;19.30
64600;BMP280;6553;48.412;9.514;2024-02-26T06:54:09;71598.50;;;19.28
64600;BMP280;6553;48.412;9.514;2024-02-26T06:56:35;71603.53;;;19.28
64600;BMP280;6553;48.412;9.514;2024-02-26T06:59:01;71606.19;;;19.30
64600;BMP280;6553;48.412;9.514;2024-02-26T07:01:26;71607.25;;;19.31
64600;BMP280;6553;48.412;9.514;2024-02-26T07:03:52;71607.78;;;19.32
64600;BMP280;6553;48.412;9.514;2024-02-26T07:06:18;71601.72;;;19.31
64600;BMP280;6553;48.412;9.514;2024-02-26T07:08:44;71611.50;;;19.35
64600;BMP280;6553;48.412;9.514;2024-02-26T07:11:10;71603.84;;;19.33
64600;BMP280;6553;48.412;9.514;2024-02-26T07:13:36;71606.59;;;19.33
64600;BMP280;6553;48.412;9.514;2024-02-26T07:16:02;71610.97;;;19.35
64600;BMP280;6553;48.412;9.514;2024-02-26T07:18:28;71610.97;;;19.35
64600;BMP280;6553;48.412;9.514;2024-02-26T07:20:54;71616.94;;;19.38
64600;BMP280;6553;48.412;9.514;2024-02-26T07:23:21;71612.44;;;19.39
64600;BMP280;6553;48.412;9.514;2024-02-26T07:25:47;71608.84;;;19.33
64600;BMP280;6553;48.412;9.514;2024-02-26T07:28:14;71613.50;;;19.40
64600;BMP280;6553;48.412;9.514;2024-02-26T07:30:40;71613.09;;;19.37
64600;BMP280;6553;48.412;9.514;2024-02-26T07:33:06;71608.09;;;19.37
64600;BMP280;6553;48.412;9.514;2024-02-26T07:35:33;71620.75;;;19.39
64600;BMP280;6553;48.412;9.514;2024-02-26T07:37:59;71615.75;;;19.39
64600;BMP280;6553;48.412;9.514;2024-02-26T07:40:24;71612.44;;;19.39
64600;BMP280;6553;48.412;9.514;2024-02-26T07:42:51;71618.50;;;19.39
64600;BMP280;6553;48.412;9.514;2024-02-26T07:45:16;71612.84;;;19.42
64600;BMP280;6553;48.412;9.514;2024-02-26T07:47:46;71610.22;;;19.39
64600;BMP280;6553;48.412;9.514;2024-02-26T07:50:12;71615.09;;;19.41
64600;BMP280;6553;48.412;9.514;2024-02-26T07:52:38;71617.34;;;19.41
64600;BMP280;6553;48.412;9.514;2024-02-26T07:55:05;71615.63;;;19.42
64600;BMP280;6553;48.412;9.514;2024-02-26T07:57:32;71622.09;;;19.45
64600;BMP280;6553;48.412;9.514;2024-02-26T07:59:59;71615.63;;;19.42
64600;BMP280;6553;48.412;9.514;2024-02-26T08:02:25;71618.84;;;19.45
64600;BMP280;6553;48.412;9.514;2024-02-26T08:04:51;71605.00;;;19.45
64600;BMP280;6553;48.412;9.514;2024-02-26T08:07:17;71616.06;;;19.45
64600;BMP280;6553;48.412;9.514;2024-02-26T08:09:42;71618.84;;;19.45
64600;BMP280;6553;48.412;9.514;2024-02-26T08:12:08;71618.38;;;19.42
64600;BMP280;6553;48.412;9.514;2024-02-26T08:14:34;71619.47;;;19.43
64600;BMP280;6553;48.412;9.514;2024-02-26T08:17:00;71616.16;;;19.42
64600;BMP280;6553;48.412;9.514;2024-02-26T08:19:26;71615.22;;;19.39
64600;BMP280;6553;48.412;9.514;2024-02-26T08:21:52;71613.91;;;19.43
64600;BMP280;6553;48.412;9.514;2024-02-26T08:24:18;71613.38;;;19.42
64600;BMP280;6553;48.412;9.514;2024-02-26T08:26:44;71620.00;;;19.43
64600;BMP280;6553;48.412;9.514;2024-02-26T08:29:10;71616.69;;;19.43
64600;BMP280;6553;48.412;9.514;2024-02-26T08:31:36;71617.75;;;19.44
64600;BMP280;6553;48.412;9.514;2024-02-26T08:34:04;71619.47;;;19.43
64600;BMP280;6553;48.412;9.514;2024-02-26T08:36:33;71615.75;;;19.39
64600;BMP280;6553;48.412;9.514;2024-02-26T08:38:59;71619.88;;;19.46
64600;BMP280;6553;48.412;9.514;2024-02-26T08:41:24;71617.34;;;19.41
64600;BMP280;6553;48.412;9.514;2024-02-26T08:43:50;71612.84;;;19.42
64600;BMP280;6553;48.412;9.514;2024-02-26T08:46:16;71622.00;;;19.48
64600;BMP280;6553;48.412;9.514;2024-02-26T08:48:42;71624.38;;;19.45
64600;BMP280;6553;48.412;9.514;2024-02-26T08:51:09;71617.22;;;19.43
64600;BMP280;6553;48.412;9.514;2024-02-26T08:53:36;71617.63;;;19.46
64600;BMP280;6553;48.412;9.514;2024-02-26T08:56:02;71617.09;;;19.46
64600;BMP280;6553;48.412;9.514;2024-02-26T08:58:28;71621.06;;;19.44
64600;BMP280;6553;48.412;9.514;2024-02-26T09:00:55;71617.63;;;19.46
64600;BMP280;6553;48.412;9.514;2024-02-26T09:03:21;71624.38;;;19.45
64600;BMP280;6553;48.412;9.514;2024-02-26T09:05:48;71622.63;;;19.46
64600;BMP280;6553;48.412;9.514;2024-02-26T09:08:14;71616.56;;;19.45
64600;BMP280;6553;48.412;9.514;2024-02-26T09:10:40;71622.63;;;19.46
64600;BMP280;6553;48.412;9.514;2024-02-26T09:13:06;71620.41;;;19.46
64600;BMP280;6553;48.412;9.514;2024-02-26T09:15:32;71621.47;;;19.47
64600;BMP280;6553;48.412;9.514;2024-02-26T09:17:57;71626.88;;;19.50
64600;BMP280;6553;48.412;9.514;2024-02-26T09:20:23;71621.34;;;19.50
64600;BMP280;6553;48.412;9.514;2024-02-26T09:22:50;71627.41;;;19.50
64600;BMP280;6553;48.412;9.514;2024-02-26T09:25:19;71623.50;;;19.52
64600;BMP280;6553;48.412;9.514;2024-02-26T09:27:46;71630.09;;;19.53
64600;BMP280;6553;48.412;9.514;2024-02-26T09:30:13;71626.78;;;19.52
64600;BMP280;6553;48.412;9.514;2024-02-26T09:32:40;71629.97;;;19.55
64600;BMP280;6553;48.412;9.514;2024-02-26T09:35:06;71626.66;;;19.55
64600;BMP280;6553;48.412;9.514;2024-02-26T09:37:33;71632.75;;;19.55
64600;BMP280;6553;48.412;9.514;2024-02-26T09:39:59;71634.19;;;19.59
64600;BMP280;6553;48.412;9.514;2024-02-26T09:42:26;71632.19;;;19.55
64600;BMP280;6553;48.412;9.514;2024-02-26T09:45:00;71628.38;;;19.54
64600;BMP280;6553;48.412;9.514;2024-02-26T09:47:31;71631.03;;;19.56
64600;BMP280;6553;48.412;9.514;2024-02-26T09:49:59;71635.91;;;19.58
64600;BMP280;6553;48.412;9.514;2024-02-26T09:52:26;71628.78;;;19.57
64600;BMP280;6553;48.412;9.514;2024-02-26T09:54:53;71632.75;;;19.55
64600;BMP280;6553;48.412;9.514;2024-02-26T09:57:19;71633.78;;;19.56
64600;BMP280;6553;48.412;9.514;2024-02-26T09:59:48;71628.38;;;19.54
64600;BMP280;6553;48.412;9.514;2024-02-26T10:02:15;71631.56;;;19.57
64600;BMP280;6553;48.412;9.514;2024-02-26T10:04:42;71638.03;;;19.60
64600;BMP280;6553;48.412;9.514;2024-02-26T10:07:13;71638.03;;;19.60
64600;BMP280;6553;48.412;9.514;2024-02-26T10:09:40;71635.81;;;19.61
64600;BMP280;6553;48.412;9.514;2024-02-26T10:12:10;71638.56;;;19.61
64600;BMP280;6553;48.412;9.514;2024-02-26T10:14:36;71635.28;;;19.60
64600;BMP280;6553;48.412;9.514;2024-02-26T10:17:02;71634.63;;;19.63
64600;BMP280;6553;48.412;9.514;2024-02-26T10:19:30;71643.38;;;19.66
64600;BMP280;6553;48.412;9.514;2024-02-26T10:22:01;71637.91;;;19.63
64600;BMP280;6553;48.412;9.514;2024-02-26T10:24:28;71641.13;;;19.66
64600;BMP280;6553;48.412;9.514;2024-02-26T10:26:55;71636.34;;;19.62
64600;BMP280;6553;48.412;9.514;2024-02-26T10:29:24;71633.56;;;19.62
64600;BMP280;6553;48.412;9.514;2024-02-26T10:31:51;71637.91;;;19.63
64600;BMP280;6553;48.412;9.514;2024-02-26T10:34:18;71639.66;;;19.62
64600;BMP280;6553;48.412;9.514;2024-02-26T10:36:44;71641.22;;;19.63
64600;BMP280;6553;48.412;9.514;2024-02-26T10:39:12;71642.81;;;19.65
64600;BMP280;6553;48.412;9.514;2024-02-26T10:41:40;71641.88;;;19.62
64600;BMP280;6553;48.412;9.514;2024-02-26T10:44:08;71637.91;;;19.63
64600;BMP280;6553;48.412;9.514;2024-02-26T10:46:34;71639.00;;;19.64
64600;BMP280;6553;48.412;9.514;2024-02-26T10:49:01;71644.41;;;19.67
64600;BMP280;6553;48.412;9.514;2024-02-26T10:51:29;71639.41;;;19.67
64600;BMP280;6553;48.412;9.514;2024-02-26T10:53:58;71647.06;;;19.69
64600;BMP280;6553;48.412;9.514;2024-02-26T10:56:28;71644.84;;;19.70
64600;BMP280;6553;48.412;9.514;2024-02-26T10:58:58;71643.25;;;19.68
64600;BMP280;6553;48.412;9.514;2024-02-26T11:01:26;71645.47;;;19.68
64600;BMP280;6553;48.412;9.514;2024-02-26T11:03:55;71643.25;;;19.68
64600;BMP280;6553;48.412;9.514;2024-02-26T11:06:22;71642.16;;;19.67
64600;BMP280;6553;48.412;9.514;2024-02-26T11:08:49;71650.38;;;19.70
64600;BMP280;6553;48.412;9.514;2024-02-26T11:11:20;71649.19;;;19.71
64600;BMP280;6553;48.412;9.514;2024-02-26T11:13:48;71643.66;;;19.71
64600;BMP280;6553;48.412;9.514;2024-02-26T11:16:21;71647.06;;;19.69
64600;BMP280;6553;48.412;9.514;2024-02-26T11:18:48;71649.19;;;19.71
64600;BMP280;6553;48.412;9.514;2024-02-26T11:21:19;71650.78;;;19.73
64600;BMP280;6553;48.412;9.514;2024-02-26T11:23:48;71643.13;;;19.71
64600;BMP280;6553;48.412;9.514;2024-02-26T11:26:16;71646.41;;;19.71
64600;BMP280;6553;48.412;9.514;2024-02-26T11:28:44;71648.66;;;19.71
64600;BMP280;6553;48.412;9.514;2024-02-26T11:31:12;71649.19;;;19.71
64600;BMP280;6553;48.412;9.514;2024-02-26T11:33:38;71641.53;;;19.69
64600;BMP280;6553;48.412;9.514;2024-02-26T11:36:12;71645.78;;;19.73
64600;BMP280;6553;48.412;9.514;2024-02-26T11:38:38;71647.50;;;19.72
64600;BMP280;6553;48.412;9.514;2024-02-26T11:41:07;71648.13;;;19.70
64600;BMP280;6553;48.412;9.514;2024-02-26T11:44:00;71649.19;;;19.71
64600;BMP280;6553;48.412;9.514;2024-02-26T11:46:32;71646.94;;;19.72
64600;BMP280;6553;48.412;9.514;2024-02-26T11:51:58;71655.78;;;19.72
64600;BMP280;6553;48.412;9.514;2024-02-26T11:54:50;71644.19;;;19.72
64600;BMP280;6553;48.412;9.514;2024-02-26T11:57:38;71650.25;;;19.72
64600;BMP280;6553;48.412;9.514;2024-02-26T12:02:46;71647.50;;;19.72
64600;BMP280;6553;48.412;9.514;2024-02-26T12:05:20;71647.50;;;19.72
64600;BMP280;6553;48.412;9.514;2024-02-26T12:08:04;71649.72;;;19.72
64600;BMP280;6553;48.412;9.514;2024-02-26T12:10:34;71648.03;;;19.73
64600;BMP280;6553;48.412;9.514;2024-02-26T12:13:16;71653.03;;;19.72
64600;BMP280;6553;48.412;9.514;2024-02-26T12:15:58;71651.31;;;19.73
64600;BMP280;6553;48.412;9.514;2024-02-26T12:18:24;71649.19;;;19.71
64600;BMP280;6553;48.412;9.514;2024-02-26T12:21:00;71650.25;;;19.72
64600;BMP280;6553;48.412;9.514;2024-02-26T12:23:30;71643.78;;;19.69
64600;BMP280;6553;48.412;9.514;2024-02-26T12:26:00;71649.06;;;19.74
64600;BMP280;6553;48.412;9.514;2024-02-26T12:28:29;71650.25;;;19.72
64600;BMP280;6553;48.412;9.514;2024-02-26T12:30:56;71650.25;;;19.72
64600;BMP280;6553;48.412;9.514;2024-02-26T12:33:25;71651.31;;;19.73
64600;BMP280;6553;48.412;9.514;2024-02-26T12:35:53;71644.72;;;19.72
64600;BMP280;6553;48.412;9.514;2024-02-26T12:38:19;71642.06;;;19.70
64600;BMP280;6553;48.412;9.514;2024-02-26T12:40:45;71647.06;;;19.69
64600;BMP280;6553;48.412;9.514;2024-02-26T12:43:11;71649.72;;;19.72
64600;BMP280;6553;48.412;9.514;2024-02-26T12:45:42;71649.19;;;19.71
64600;BMP280;6553;48.412;9.514;2024-02-26T12:48:12;71644.84;;;19.70
64600;BMP280;6553;48.412;9.514;2024-02-26T12:50:38;71643.25;;;19.68
64600;BMP280;6553;48.412;9.514;2024-02-26T12:53:06;71644.19;;;19.72
64600;BMP280;6553;48.412;9.514;2024-02-26T12:55:32;71644.19;;;19.72
64600;BMP280;6553;48.412;9.514;2024-02-26T12:58:00;71648.13;;;19.70
64600;BMP280;6553;48.412;9.514;2024-02-26T13:00:27;71648.03;;;19.73
64600;BMP280;6553;48.412;9.514;2024-02-26T13:02:55;71648.66;;;19.71
64600;BMP280;6553;48.412;9.514;2024-02-26T13:05:22;71648.03;;;19.73
64600;BMP280;6553;48.412;9.514;2024-02-26T13:07:48;71650.25;;;19.72
64600;BMP280;6553;48.412;9.514;2024-02-26T13:10:14;71644.31;;;19.69
64600;BMP280;6553;48.412;9.514;2024-02-26T13:12:48;71644.19;;;19.72
64600;BMP280;6553;48.412;9.514;2024-02-26T13:15:18;71670.44;;;19.91
64600;BMP280;6553;48.412;9.514;2024-02-26T13:17:45;71660.22;;;19.84
64600;BMP280;6553;48.412;9.514;2024-02-26T13:20:12;71657.16;;;19.79
64600;BMP280;6553;48.412;9.514;2024-02-26T13:22:38;71649.06;;;19.74
64600;BMP280;6553;48.412;9.514;2024-02-26T13:25:04;71651.75;;;19.76
64600;BMP280;6553;48.412;9.514;2024-02-26T13:27:33;71652.38;;;19.74
64600;BMP280;6553;48.412;9.514;2024-02-26T13:30:12;71650.16;;;19.75
64600;BMP280;6553;48.412;9.514;2024-02-26T13:32:40;71652.28;;;19.77
64600;BMP280;6553;48.412;9.514;2024-02-26T13:35:12;71647.91;;;19.75
64600;BMP280;6553;48.412;9.514;2024-02-26T13:37:39;71651.75;;;19.76
64600;BMP280;6553;48.412;9.514;2024-02-26T13:40:10;71652.28;;;19.77
64600;BMP280;6553;48.412;9.514;2024-02-26T13:42:39;71653.44;;;19.75
64600;BMP280;6553;48.412;9.514;2024-02-26T13:45:06;71648.56;;;19.73
64600;BMP280;6553;48.412;9.514;2024-02-26T13:47:33;71649.50;;;19.77
64600;BMP280;6553;48.412;9.514;2024-02-26T13:49:59;71651.63;;;19.79
64600;BMP280;6553;48.412;9.514;2024-02-26T13:52:26;71658.88;;;19.78
64600;BMP280;6553;48.412;9.514;2024-02-26T13:54:52;71653.88;;;19.78
64600;BMP280;6553;48.412;9.514;2024-02-26T13:57:19;71658.88;;;19.78
64600;BMP280;6553;48.412;9.514;2024-02-26T13:59:45;71658.31;;;19.77
64600;BMP280;6553;48.412;9.514;2024-02-26T14:02:10;71653.97;;;19.76
64600;BMP280;6553;48.412;9.514;2024-02-26T14:04:37;71652.78;;;19.77
64600;BMP280;6553;48.412;9.514;2024-02-26T14:07:04;71652.69;;;19.80
64600;BMP280;6553;48.412;9.514;2024-02-26T14:09:30;71656.63;;;19.78
64600;BMP280;6553;48.412;9.514;2024-02-26T14:11:58;71655.03;;;19.77
64600;BMP280;6553;48.412;9.514;2024-02-26T14:14:24;71655.56;;;19.77
64600;BMP280;6553;48.412;9.514;2024-02-26T14:16:51;71652.28;;;19.77
64600;BMP280;6553;48.412;9.514;2024-02-26T14:19:17;71657.16;;;19.79
64600;BMP280;6553;48.412;9.514;2024-02-26T14:21:43;71652.78;;;19.77
64600;BMP280;6553;48.412;9.514;2024-02-26T14:24:09;71649.63;;;19.74
64600;BMP280;6553;48.412;9.514;2024-02-26T14:26:35;71654.41;;;19.79